This is the latest recevied weather packets stored in our database for station/object KD0RIH. If no packets are shown the sender has not sent any weather packets the latest 1 day(s).
| Time | Temp. | Humidity | Pressure | Rain* | Wind** | Luminosity | Snow |
|---|---|---|---|---|---|---|---|
| 1777988144 | 10° C | 74% | 1011.2 hPa | 1.27 mm | 0 m/s | 36 W/m² | - |
| 1777987840 | 10° C | 71% | 1011.2 hPa | 1.27 mm | 0 m/s | 46 W/m² | - |
| 1777987537 | 10° C | 68% | 1011.2 hPa | 0 mm | 0 m/s | 40 W/m² | - |
| 1777987235 | 10.56° C | 68% | 1011.5 hPa | 0 mm | 0 m/s | 29 W/m² | - |
| 1777986931 | 10.56° C | 64% | 1011.3 hPa | 0 mm | 0 m/s | 23 W/m² | - |
| 1777986630 | 10.56° C | 63% | 1011 hPa | 0 mm | 0 m/s | 26 W/m² | - |
| 1777986327 | 10.56° C | 61% | 1010.7 hPa | 0 mm | 0 m/s | 31 W/m² | - |
| 1777986026 | 10.56° C | 61% | 1010.6 hPa | 0 mm | 0 m/s | 27 W/m² | - |
| 1777985722 | 10.56° C | 59% | 1010.5 hPa | 0 mm | 0 m/s | 23 W/m² | - |
| 1777985418 | 11.11° C | 58% | 1010.3 hPa | 0 mm | 0 m/s | 28 W/m² | - |
| 1777985115 | 11.11° C | 55% | 1010.3 hPa | 0 mm | 0 m/s | 23 W/m² | - |
| 1777984812 | 11.11° C | 54% | 1010.3 hPa | 0 mm | 0.89 m/s, 29° | 19 W/m² | - |
| 1777984508 | 11.11° C | 53% | 1010.5 hPa | 0 mm | 0 m/s | 12 W/m² | - |
| 1777984204 | 11.11° C | 52% | 1010.5 hPa | 0 mm | 0.45 m/s, 354° | 18 W/m² | - |
| 1777983901 | 11.11° C | 53% | 1010.4 hPa | 0 mm | 0 m/s | 19 W/m² | - |
| 1777983598 | 11.11° C | 53% | 1010.1 hPa | 0 mm | 0 m/s | 20 W/m² | - |
| 1777983295 | 11.11° C | 53% | 1010.2 hPa | 0 mm | 0.89 m/s, 348° | 15 W/m² | - |
| 1777982991 | 11.11° C | 53% | 1010 hPa | 0 mm | 0.89 m/s, 9° | 17 W/m² | - |
| 1777982687 | 11.11° C | 54% | 1010 hPa | 0 mm | 0 m/s | 19 W/m² | - |
| 1777982386 | 11.11° C | 54% | 1009.9 hPa | 0 mm | 0 m/s | 18 W/m² | - |
| 1777982083 | 11.11° C | 54% | 1009.8 hPa | 0 mm | 0.45 m/s, 280° | 20 W/m² | - |
| 1777981782 | 11.11° C | 54% | 1009.7 hPa | 0 mm | 0.45 m/s, 49° | 21 W/m² | - |
| 1777981477 | 11.11° C | 53% | 1009.7 hPa | 0 mm | 0.89 m/s, 67° | 18 W/m² | - |
| 1777981174 | 11.11° C | 53% | 1009.6 hPa | 0 mm | 0.45 m/s, 336° | 18 W/m² | - |
| 1777980870 | 11.11° C | 52% | 1009.9 hPa | 0 mm | 0.89 m/s, 58° | 10 W/m² | - |
* Rain latest hour (hover to see other rain measurements)
** Current wind speed in m/s (hover to see current wind gust speed)